KGJT/GJT METAR and TAF weather

Enter ICAO airport designator
Station Type Date Time Source
KGJT METAR 2024/05/28 21:56 UTC NOAA

KGJT 282156Z VRB03G16KT 10SM CLR 32/M04 A3004 RMK AO2 T03171039


Station Type Date Time Source
KGJT Decoded METAR 2024/05/28 21:56 UTC NOAA

GRAND JUNCTION WALKER FIELD, CO, United States (KGJT) 39-08N 108-32W 1452M
May 28, 2024 - 05:56 PM EDT / 2024.05.28 2156 UTC
Wind: Variable at 3 MPH (3 KT) gusting to 18 MPH (16 KT):0
Visibility: 10 mile(s):0
Sky conditions: clear
Temperature: 89.1 F (31.7 C)
Dew Point: 25.0 F (-3.9 C)
Relative Humidity: 9%
Pressure (altimeter): 30.04 in. Hg (1017 hPa)
ob: KGJT 282156Z VRB03G16KT 10SM CLR 32/M04 A3004 RMK AO2 T03171039
cycle: 22

Station Type Date Time Source
KGJT TAF 2024/05/28 18:24 UTC NOAA